Accueil
METAR-TAF:

METAR-TAF

Aéroports :

Aéroport international de Cardiff

Cardiff, Pays de Galles

latitude: 51-24N, longitude: 003-21W, altitude: 67 m

Observation

Le bulletin a été fait il y a 38 minutes, à 03:20 UTC
Vent 4 kt de est
Température 11°C
Humidité 82%
Pression 1030 hPa
Visibilité 10 km ou plus

METAR: EGFF 230320Z AUTO 08004KT 9999 NCD 11/08 Q1030

Heure: 04:58 (03:58 UTC)

Prévision

Le bulletin a été fait il y a 5 heures et 4 minutes, à 22:54 UTC
Prévision valable du 23 à 00 UTC au 23 à 24 UTC
Vent 5 kt de direction variable
Visibilité 10 km ou plus
pas de nuages en-dessous de 1500 mètres et pas de cumulonimbus.
Evoluant progressivement
du 23 à 12 UTC au 23 à 15 UTC
Vent 10 kt de ouest

TAF: EGFF 222254Z 2300/2324 VRB05KT CAVOK BECMG 2312/2315 26010KT

Observations et prévisions météorologiques de plus de 4000 aéroports (messages METAR et TAF).

Les stations disponibles sont représentées par des disques jaunes et rouges sur la carte.

Passer la souris dessus pour voir le nom de la station.

Cliquer dessus pour voir les observations et prévisions météorologiques.

Pour changer de carte: cliquez sur les boutons verts avec une croix noire pour zoomer, sur le bouton vert avec un tiret pour effectuer un zoom arrière, ou sur les flèches vertes pour les cartes adjacentes.


METAR-TAF: